createdAt,value
2022-12-19T00:01:20.419Z,9.71
2022-12-19T00:03:46.857Z,9.68
2022-12-19T00:06:13.245Z,9.82
2022-12-19T00:08:39.632Z,9.86
2022-12-19T00:11:06.065Z,9.74
2022-12-19T00:13:33.650Z,9.83
2022-12-19T00:16:07.280Z,9.70
2022-12-19T00:18:33.678Z,9.95
2022-12-19T00:21:00.080Z,9.96
2022-12-19T00:23:26.432Z,10.07
2022-12-19T00:25:52.837Z,10.02
2022-12-19T00:28:20.225Z,9.75
2022-12-19T00:30:47.813Z,9.75
2022-12-19T00:33:14.171Z,9.70
2022-12-19T00:35:40.552Z,9.62
2022-12-19T00:38:06.936Z,9.68
2022-12-19T00:40:33.322Z,9.99
2022-12-19T00:42:59.701Z,9.94
2022-12-19T00:45:27.115Z,10.08
2022-12-19T00:47:55.549Z,10.12
2022-12-19T00:50:21.894Z,9.96
2022-12-19T00:52:48.236Z,9.81
2022-12-19T00:55:18.410Z,9.98
2022-12-19T00:57:45.646Z,10.03
2022-12-19T01:00:11.988Z,10.08
2022-12-19T01:02:38.513Z,10.02
2022-12-19T01:05:05.024Z,10.09
2022-12-19T01:07:31.376Z,10.24
2022-12-19T01:09:57.755Z,10.12
2022-12-19T01:12:24.573Z,10.13
2022-12-19T01:14:51.387Z,10.26
2022-12-19T01:17:17.757Z,10.00
2022-12-19T01:19:44.849Z,10.06
2022-12-19T01:22:11.290Z,10.26
2022-12-19T01:24:37.775Z,10.37
2022-12-19T01:27:04.182Z,10.24
2022-12-19T01:29:30.538Z,10.23
2022-12-19T01:31:58.504Z,10.38
2022-12-19T01:34:24.921Z,10.12
2022-12-19T01:36:51.280Z,10.22
2022-12-19T01:39:17.661Z,10.21
2022-12-19T01:41:44.011Z,10.08
2022-12-19T01:44:10.343Z,9.99
2022-12-19T01:46:36.787Z,9.78
2022-12-19T01:49:03.235Z,9.88
2022-12-19T01:51:29.620Z,9.67
2022-12-19T01:53:55.971Z,9.51
2022-12-19T01:56:22.296Z,9.84
2022-12-19T01:58:48.701Z,9.81
2022-12-19T02:01:15.159Z,9.19
2022-12-19T02:03:41.591Z,9.49
2022-12-19T02:06:07.989Z,9.44
2022-12-19T02:08:34.377Z,9.56
2022-12-19T02:11:01.366Z,9.44
2022-12-19T02:13:27.798Z,9.52
2022-12-19T02:15:54.189Z,9.30
2022-12-19T02:18:20.549Z,9.42
2022-12-19T02:20:46.889Z,9.17
2022-12-19T02:23:13.263Z,9.29
2022-12-19T02:25:40.224Z,9.33
2022-12-19T02:28:06.816Z,9.37
2022-12-19T02:30:33.443Z,9.36
2022-12-19T02:32:59.838Z,9.52
2022-12-19T02:35:26.219Z,9.57
2022-12-19T02:37:52.604Z,9.49
2022-12-19T02:40:20.440Z,9.33
2022-12-19T02:42:46.840Z,9.35
2022-12-19T02:45:13.210Z,9.45
2022-12-19T02:47:43.143Z,9.74
2022-12-19T02:50:09.496Z,9.76
2022-12-19T02:52:35.882Z,9.75
2022-12-19T02:55:02.280Z,9.71
2022-12-19T02:57:28.636Z,9.55
2022-12-19T02:59:55.389Z,9.72
2022-12-19T03:02:23.397Z,9.67
2022-12-19T03:04:49.849Z,9.48
2022-12-19T03:07:16.240Z,9.83
2022-12-19T03:09:42.851Z,9.74
2022-12-19T03:12:11.623Z,9.69
2022-12-19T03:14:40.532Z,9.65
2022-12-19T03:17:06.962Z,9.71
2022-12-19T03:19:33.397Z,9.49
2022-12-19T03:21:59.756Z,9.71
2022-12-19T03:24:26.402Z,9.82
2022-12-19T03:26:52.831Z,9.89
2022-12-19T03:29:19.187Z,9.77
2022-12-19T03:31:45.521Z,9.89
2022-12-19T03:34:11.864Z,9.93
2022-12-19T03:36:38.257Z,9.96
2022-12-19T03:39:04.969Z,10.11
2022-12-19T03:41:31.364Z,10.01
2022-12-19T03:43:57.723Z,9.75
2022-12-19T03:46:24.308Z,9.45
2022-12-19T03:48:50.681Z,9.08
2022-12-19T03:51:17.071Z,9.15
2022-12-19T03:53:43.421Z,9.17
2022-12-19T03:56:09.801Z,9.03
2022-12-19T03:58:36.210Z,9.21
2022-12-19T04:01:02.601Z,9.26
2022-12-19T04:03:29.060Z,9.41
2022-12-19T04:05:55.483Z,9.52
2022-12-19T04:08:21.900Z,9.36
2022-12-19T04:10:48.288Z,9.87
2022-12-19T04:13:14.663Z,9.75
2022-12-19T04:15:41.087Z,9.71
2022-12-19T04:18:07.497Z,9.61
2022-12-19T04:20:34.322Z,9.48
2022-12-19T04:23:00.726Z,9.18
2022-12-19T04:25:29.504Z,9.30
2022-12-19T04:27:56.105Z,9.62
2022-12-19T04:30:22.490Z,9.68
2022-12-19T04:32:48.855Z,9.69
2022-12-19T04:35:15.223Z,9.58
2022-12-19T04:37:41.588Z,9.65
2022-12-19T04:40:07.958Z,9.74
2022-12-19T04:42:34.305Z,9.68
2022-12-19T04:45:00.654Z,9.12
2022-12-19T04:47:27.033Z,9.33
2022-12-19T04:49:53.391Z,9.50
2022-12-19T04:52:19.788Z,9.37
2022-12-19T04:54:46.144Z,9.40
2022-12-19T04:57:12.524Z,9.01
2022-12-19T04:59:38.911Z,8.59
2022-12-19T05:02:05.363Z,8.94
2022-12-19T05:04:31.853Z,9.32
2022-12-19T05:06:58.235Z,9.25
2022-12-19T05:09:25.198Z,9.01
2022-12-19T05:11:51.597Z,9.01
2022-12-19T05:14:17.948Z,9.34
2022-12-19T05:16:44.429Z,9.47
2022-12-19T05:19:10.795Z,9.43
2022-12-19T05:21:37.140Z,9.48
2022-12-19T05:24:03.540Z,9.37
2022-12-19T05:26:29.923Z,9.00
2022-12-19T05:28:56.354Z,9.32
2022-12-19T05:31:22.774Z,9.56
2022-12-19T05:33:49.397Z,9.49
2022-12-19T05:36:15.788Z,9.53
2022-12-19T05:38:42.154Z,9.48
2022-12-19T05:41:08.492Z,9.34
2022-12-19T05:43:34.880Z,9.38
2022-12-19T05:46:01.294Z,9.49
2022-12-19T05:48:27.680Z,9.51
2022-12-19T05:50:54.067Z,9.36
2022-12-19T05:53:24.611Z,9.40
2022-12-19T05:55:52.337Z,9.46
2022-12-19T05:58:18.762Z,9.55
2022-12-19T06:00:45.162Z,9.41
2022-12-19T06:03:11.676Z,9.11
2022-12-19T06:05:38.142Z,9.32
2022-12-19T06:08:04.522Z,9.39
2022-12-19T06:10:30.940Z,9.48
2022-12-19T06:12:57.305Z,9.35
2022-12-19T06:15:23.660Z,9.28
2022-12-19T06:17:50.006Z,9.33
2022-12-19T06:20:16.374Z,9.22
2022-12-19T06:22:42.783Z,9.46
2022-12-19T06:25:09.182Z,9.38
2022-12-19T06:27:35.550Z,9.30
2022-12-19T06:30:01.914Z,9.28
2022-12-19T06:32:28.267Z,9.21
2022-12-19T06:35:04.076Z,9.29
2022-12-19T06:37:30.668Z,9.16
2022-12-19T06:39:57.009Z,9.22
2022-12-19T06:42:23.387Z,9.30
2022-12-19T06:44:49.788Z,9.03
2022-12-19T06:47:16.137Z,9.33
2022-12-19T06:49:42.479Z,9.43
2022-12-19T06:52:09.338Z,9.33
2022-12-19T06:54:35.810Z,9.43
2022-12-19T06:57:02.216Z,9.39
2022-12-19T06:59:28.578Z,9.31
2022-12-19T07:01:55.051Z,9.34
2022-12-19T07:04:21.768Z,9.29
2022-12-19T07:06:49.410Z,9.33
2022-12-19T07:09:15.933Z,9.57
2022-12-19T07:11:42.278Z,9.42
2022-12-19T07:14:08.659Z,9.35
2022-12-19T07:16:37.227Z,9.51
2022-12-19T07:19:03.677Z,9.39
2022-12-19T07:21:30.035Z,9.67
2022-12-19T07:23:56.414Z,9.39
2022-12-19T07:26:22.801Z,9.30
2022-12-19T07:28:49.160Z,9.40
2022-12-19T07:31:15.586Z,9.59
2022-12-19T07:33:41.949Z,9.55
2022-12-19T07:36:08.321Z,9.71
2022-12-19T07:38:34.713Z,9.60
2022-12-19T07:41:01.116Z,9.49
2022-12-19T07:43:27.513Z,9.34
2022-12-19T07:45:53.946Z,9.54
2022-12-19T07:48:20.385Z,9.64
2022-12-19T07:50:46.750Z,9.63
2022-12-19T07:53:13.142Z,9.72
2022-12-19T07:55:39.545Z,9.78
2022-12-19T07:58:05.936Z,10.06
2022-12-19T08:00:32.340Z,9.65
2022-12-19T08:02:58.899Z,9.24
2022-12-19T08:05:25.381Z,9.51
2022-12-19T08:07:51.803Z,9.60
2022-12-19T08:10:18.181Z,9.80
2022-12-19T08:12:44.526Z,9.97
2022-12-19T08:15:11.007Z,9.93
2022-12-19T08:17:37.783Z,9.93
2022-12-19T08:20:04.140Z,10.11
2022-12-19T08:22:30.676Z,10.01
2022-12-19T08:24:57.067Z,10.12
2022-12-19T08:27:23.471Z,10.20
2022-12-19T08:29:49.869Z,10.10
2022-12-19T08:32:20.774Z,10.23
2022-12-19T08:34:47.711Z,10.38
2022-12-19T08:37:14.095Z,10.41
2022-12-19T08:39:40.506Z,10.36
2022-12-19T08:42:06.912Z,10.38
2022-12-19T08:44:33.304Z,10.28
2022-12-19T08:46:59.686Z,10.22
2022-12-19T08:49:26.088Z,10.42
2022-12-19T08:51:52.492Z,10.52
2022-12-19T08:54:18.866Z,10.18
2022-12-19T08:56:46.855Z,10.36
2022-12-19T08:59:13.597Z,10.36
2022-12-19T09:01:42.413Z,10.51
2022-12-19T09:05:47.727Z,10.65
2022-12-19T09:06:55.293Z,10.64
2022-12-19T09:09:21.644Z,10.75
2022-12-19T09:11:48.438Z,10.55
2022-12-19T09:14:14.912Z,10.77
2022-12-19T09:16:47.006Z,10.61
2022-12-19T09:19:13.496Z,10.50
2022-12-19T09:21:39.916Z,10.71
2022-12-19T09:24:08.145Z,10.13
2022-12-19T09:26:34.623Z,10.65
2022-12-19T09:29:01.044Z,10.54
2022-12-19T09:31:28.807Z,10.80
2022-12-19T09:33:55.183Z,10.69
2022-12-19T09:36:21.548Z,10.55
2022-12-19T09:38:47.960Z,10.39
2022-12-19T09:41:15.801Z,10.45
2022-12-19T09:43:44.421Z,10.42
2022-12-19T09:46:10.811Z,10.61
2022-12-19T09:48:37.174Z,10.61
2022-12-19T09:51:09.610Z,10.91
2022-12-19T09:53:37.334Z,10.80
2022-12-19T09:56:03.690Z,11.19
2022-12-19T09:58:30.054Z,11.13
2022-12-19T10:00:59.680Z,11.45
2022-12-19T10:03:32.272Z,11.40
2022-12-19T10:07:09.383Z,11.66
2022-12-19T10:09:26.851Z,11.79
2022-12-19T10:12:43.497Z,11.69
2022-12-19T10:14:25.598Z,11.76
2022-12-19T10:17:22.484Z,11.83
2022-12-19T10:19:39.936Z,11.52
2022-12-19T10:22:18.254Z,11.31
2022-12-19T10:24:46.478Z,11.62
2022-12-19T10:27:30.214Z,11.92
2022-12-19T10:29:56.633Z,11.97
2022-12-19T10:32:23.038Z,11.76
2022-12-19T10:34:49.442Z,11.58
2022-12-19T10:37:24.360Z,11.85
2022-12-19T10:39:55.958Z,12.08
2022-12-19T10:42:22.406Z,12.00
2022-12-19T10:44:48.777Z,11.76
2022-12-19T10:47:15.190Z,11.72
2022-12-19T10:49:41.601Z,12.20
2022-12-19T10:52:08.057Z,12.18
2022-12-19T10:54:34.463Z,11.80
2022-12-19T10:57:07.394Z,11.86
2022-12-19T10:59:33.800Z,11.96
2022-12-19T11:02:01.191Z,12.39
2022-12-19T11:04:28.170Z,12.48
2022-12-19T11:06:54.525Z,12.11
2022-12-19T11:09:21.000Z,12.46
2022-12-19T11:14:30.409Z,12.46
2022-12-19T11:19:18.740Z,12.55
2022-12-19T11:23:40.153Z,12.55
2022-12-19T11:29:31.808Z,12.64
2022-12-19T11:29:37.162Z,12.50
2022-12-19T11:30:06.588Z,12.76
2022-12-19T11:30:25.886Z,12.91
2022-12-19T11:33:58.329Z,12.95
2022-12-19T11:36:24.703Z,12.81
2022-12-19T11:38:51.054Z,12.49
2022-12-19T11:41:17.404Z,12.83
2022-12-19T11:43:45.918Z,13.10
2022-12-19T11:46:17.658Z,12.91
2022-12-19T11:48:47.663Z,13.09
2022-12-19T11:51:14.017Z,12.97
2022-12-19T11:53:40.383Z,13.11
2022-12-19T11:56:08.109Z,13.08
2022-12-19T11:58:43.032Z,12.57
2022-12-19T12:01:10.031Z,12.66
2022-12-19T12:03:36.497Z,12.65
2022-12-19T12:06:02.911Z,12.84
2022-12-19T12:10:35.929Z,12.97
2022-12-19T12:18:40.779Z,12.93
2022-12-19T12:24:20.693Z,12.71
2022-12-19T12:30:12.888Z,12.85
2022-12-19T12:31:19.068Z,12.95
2022-12-19T12:31:27.172Z,12.87
2022-12-19T12:31:38.596Z,12.81
2022-12-19T12:31:49.891Z,13.04
2022-12-19T12:32:06.317Z,12.93
2022-12-19T12:35:32.783Z,13.16
2022-12-19T12:38:59.283Z,13.12
2022-12-19T12:41:25.700Z,13.04
2022-12-19T12:43:52.110Z,12.91
2022-12-19T12:46:18.538Z,13.02
2022-12-19T12:48:44.939Z,12.89
2022-12-19T12:51:11.296Z,12.83
2022-12-19T12:53:37.642Z,12.68
2022-12-19T12:56:06.598Z,12.84
2022-12-19T12:58:33.626Z,12.97
2022-12-19T13:01:00.056Z,12.85
2022-12-19T13:03:26.527Z,13.02
2022-12-19T13:05:52.945Z,13.12
2022-12-19T13:08:19.316Z,13.21
2022-12-19T13:10:45.701Z,13.02
2022-12-19T13:13:15.701Z,13.05
2022-12-19T13:15:43.819Z,13.13
2022-12-19T13:18:10.179Z,13.17
2022-12-19T13:20:36.572Z,13.32
2022-12-19T13:23:02.943Z,12.94
2022-12-19T13:25:29.331Z,12.88
2022-12-19T13:27:57.680Z,12.65
2022-12-19T13:30:25.094Z,12.82
2022-12-19T13:32:51.529Z,12.95
2022-12-19T13:36:38.932Z,13.38
2022-12-19T13:40:00.504Z,13.26
2022-12-19T13:40:50.585Z,13.05
2022-12-19T13:43:16.946Z,12.80
2022-12-19T13:45:43.385Z,13.27
2022-12-19T13:48:09.814Z,13.49
2022-12-19T13:50:37.049Z,13.43
2022-12-19T13:53:03.443Z,12.96
2022-12-19T13:55:29.798Z,12.86
2022-12-19T13:57:56.183Z,13.13
2022-12-19T14:00:22.583Z,13.10
2022-12-19T14:02:49.231Z,13.42
2022-12-19T14:05:15.782Z,13.39
2022-12-19T14:07:42.149Z,13.48
2022-12-19T14:11:35.949Z,13.38
2022-12-19T14:13:53.115Z,12.90
2022-12-19T14:15:41.289Z,13.07
2022-12-19T14:18:42.857Z,13.29
2022-12-19T14:22:10.257Z,13.02
2022-12-19T14:23:43.636Z,12.78
2022-12-19T14:28:21.289Z,12.86
2022-12-19T14:28:57.116Z,13.03
2022-12-19T14:31:23.545Z,13.29
2022-12-19T14:36:36.245Z,12.73
2022-12-19T14:39:22.941Z,12.75
2022-12-19T14:41:49.006Z,12.59
2022-12-19T14:53:08.459Z,12.84
2022-12-19T14:53:52.227Z,12.84
2022-12-19T14:54:23.410Z,12.46
2022-12-19T14:54:31.209Z,12.68
2022-12-19T14:56:19.521Z,12.54
2022-12-19T14:58:53.360Z,12.48
2022-12-19T15:01:09.086Z,12.30
2022-12-19T15:03:37.732Z,12.57
2022-12-19T15:07:05.897Z,12.42
2022-12-19T15:10:58.224Z,12.29
2022-12-19T15:11:54.066Z,12.40
2022-12-19T15:14:50.663Z,12.44
2022-12-19T15:17:10.081Z,11.93
2022-12-19T15:19:36.440Z,11.72
2022-12-19T15:22:02.815Z,11.55
2022-12-19T15:24:29.184Z,11.64
2022-12-19T15:26:55.841Z,11.50
2022-12-19T15:29:22.502Z,11.43
2022-12-19T15:31:48.979Z,11.72
2022-12-19T15:34:34.082Z,11.38
2022-12-19T15:37:01.701Z,11.02
2022-12-19T15:39:28.063Z,11.30
2022-12-19T15:41:54.419Z,11.37
2022-12-19T15:44:20.813Z,11.19
2022-12-19T15:46:49.415Z,11.48
2022-12-19T15:49:16.129Z,11.27
2022-12-19T15:51:42.536Z,11.17
2022-12-19T15:54:46.760Z,10.98
2022-12-19T15:56:55.289Z,10.81
2022-12-19T15:59:21.711Z,10.70
2022-12-19T16:01:48.147Z,10.86
2022-12-19T16:04:14.800Z,10.93
2022-12-19T16:06:41.366Z,10.72
2022-12-19T16:09:07.748Z,10.72
2022-12-19T16:11:34.096Z,11.04
2022-12-19T16:14:00.446Z,10.62
2022-12-19T16:16:26.879Z,10.47
2022-12-19T16:18:53.288Z,10.42
2022-12-19T16:21:19.649Z,10.23
2022-12-19T16:23:46.002Z,10.21
2022-12-19T16:26:12.370Z,10.22
2022-12-19T16:28:38.721Z,10.13
2022-12-19T16:31:05.164Z,10.23
2022-12-19T16:33:31.559Z,10.41
2022-12-19T16:36:06.469Z,10.26
2022-12-19T16:38:33.551Z,10.14
2022-12-19T16:41:00.114Z,10.12
2022-12-19T16:43:26.515Z,10.08
2022-12-19T16:45:55.724Z,10.09
2022-12-19T16:48:26.315Z,9.93
2022-12-19T16:50:52.673Z,10.00
2022-12-19T16:53:19.098Z,10.02
2022-12-19T16:55:45.532Z,10.02
2022-12-19T16:58:11.907Z,9.99
2022-12-19T17:00:38.313Z,9.96
2022-12-19T17:03:04.729Z,10.00
2022-12-19T17:05:31.230Z,9.95
2022-12-19T17:07:57.651Z,9.95
2022-12-19T17:10:26.401Z,9.94
2022-12-19T17:12:52.981Z,10.02
2022-12-19T17:15:19.382Z,10.08
2022-12-19T17:17:45.818Z,10.29
2022-12-19T17:20:12.165Z,10.62
2022-12-19T17:22:38.559Z,11.09
2022-12-19T17:25:04.923Z,10.96
2022-12-19T17:27:31.279Z,10.90
2022-12-19T17:29:57.700Z,10.85
2022-12-19T17:32:24.780Z,10.49
2022-12-19T17:34:51.292Z,10.23
2022-12-19T17:37:17.650Z,10.12
2022-12-19T17:39:44.034Z,10.59
2022-12-19T17:42:10.402Z,10.76
2022-12-19T17:44:36.812Z,11.01
2022-12-19T17:47:03.217Z,11.37
2022-12-19T17:49:29.578Z,11.00
2022-12-19T17:51:55.918Z,10.69
2022-12-19T17:54:22.315Z,10.58
2022-12-19T17:56:48.747Z,10.56
2022-12-19T17:59:15.103Z,10.60
2022-12-19T18:01:41.559Z,10.56
2022-12-19T18:04:08.135Z,10.47
2022-12-19T18:06:34.478Z,10.23
2022-12-19T18:09:00.814Z,10.21
2022-12-19T18:11:27.244Z,10.57
2022-12-19T18:13:53.675Z,11.22
2022-12-19T18:16:20.138Z,10.98
2022-12-19T18:18:46.577Z,10.69
2022-12-19T18:21:12.936Z,10.71
2022-12-19T18:23:39.324Z,10.33
2022-12-19T18:26:05.717Z,10.11
2022-12-19T18:28:32.080Z,10.07
2022-12-19T18:30:58.541Z,10.03
2022-12-19T18:33:24.984Z,9.96
2022-12-19T18:35:51.340Z,10.00
2022-12-19T18:38:17.732Z,10.12
2022-12-19T18:40:44.148Z,10.04
2022-12-19T18:43:10.486Z,10.34
2022-12-19T18:45:36.998Z,10.20
2022-12-19T18:48:03.482Z,10.18
2022-12-19T18:50:29.894Z,10.20
2022-12-19T18:52:56.296Z,10.15
2022-12-19T18:55:22.681Z,10.11
2022-12-19T18:57:49.069Z,10.16
2022-12-19T19:00:15.434Z,10.01
2022-12-19T19:02:41.905Z,10.11
2022-12-19T19:05:08.395Z,10.15
2022-12-19T19:07:34.779Z,10.04
2022-12-19T19:10:01.153Z,9.97
2022-12-19T19:12:27.547Z,10.12
2022-12-19T19:14:53.933Z,10.02
2022-12-19T19:17:20.349Z,9.98
2022-12-19T19:19:46.743Z,10.24
2022-12-19T19:22:13.114Z,10.03
2022-12-19T19:24:39.525Z,9.84
2022-12-19T19:27:05.929Z,10.10
2022-12-19T19:29:32.286Z,9.95
2022-12-19T19:31:58.688Z,9.91
2022-12-19T19:34:25.046Z,9.88
2022-12-19T19:36:51.471Z,10.73
2022-12-19T19:39:17.869Z,10.29
2022-12-19T19:41:44.243Z,10.47
2022-12-19T19:44:10.647Z,10.32
2022-12-19T19:46:37.123Z,10.32
2022-12-19T19:49:03.568Z,10.74
2022-12-19T19:51:29.944Z,10.40
2022-12-19T19:53:56.307Z,10.63
2022-12-19T19:56:22.715Z,10.50
2022-12-19T19:58:49.109Z,10.60
2022-12-19T20:01:15.576Z,10.64
2022-12-19T20:03:42.124Z,10.52
2022-12-19T20:06:09.281Z,10.41
2022-12-19T20:08:39.693Z,10.15
2022-12-19T20:11:06.710Z,10.08
2022-12-19T20:13:33.103Z,10.27
2022-12-19T20:15:59.525Z,10.33
2022-12-19T20:18:25.968Z,10.06
2022-12-19T20:20:52.309Z,10.26
2022-12-19T20:23:18.708Z,10.68
2022-12-19T20:25:45.057Z,10.52
2022-12-19T20:28:11.461Z,10.91
2022-12-19T20:30:37.867Z,10.70
2022-12-19T20:33:04.267Z,10.73
2022-12-19T20:35:30.643Z,10.77
2022-12-19T20:37:57.010Z,10.74
2022-12-19T20:40:23.404Z,10.95
2022-12-19T20:42:49.778Z,11.10
2022-12-19T20:45:16.298Z,11.15
2022-12-19T20:47:42.705Z,11.30
2022-12-19T20:50:09.095Z,11.32
2022-12-19T20:52:35.523Z,11.47
2022-12-19T20:55:01.881Z,11.32
2022-12-19T20:57:28.266Z,11.54
2022-12-19T20:59:54.653Z,11.44
2022-12-19T21:02:21.124Z,11.20
2022-12-19T21:04:47.695Z,11.01
2022-12-19T21:07:14.148Z,11.10
2022-12-19T21:09:40.508Z,10.72
2022-12-19T21:12:07.056Z,10.70
2022-12-19T21:14:33.413Z,10.61
2022-12-19T21:16:59.811Z,10.32
2022-12-19T21:19:26.219Z,10.17
2022-12-19T21:21:52.597Z,10.04
2022-12-19T21:24:19.058Z,10.16
2022-12-19T21:26:45.451Z,10.02
2022-12-19T21:29:11.856Z,10.20
2022-12-19T21:31:38.258Z,9.92
2022-12-19T21:34:04.657Z,9.90
2022-12-19T21:36:31.109Z,10.19
2022-12-19T21:38:57.539Z,9.95
2022-12-19T21:41:24.011Z,9.84
2022-12-19T21:43:51.139Z,9.56
2022-12-19T21:46:17.577Z,10.37
2022-12-19T21:48:44.032Z,10.00
2022-12-19T21:51:10.450Z,10.02
2022-12-19T21:53:36.831Z,9.99
2022-12-19T21:56:03.202Z,9.99
2022-12-19T21:58:29.587Z,10.19
2022-12-19T22:00:55.958Z,10.10
2022-12-19T22:03:22.460Z,10.11
2022-12-19T22:05:48.905Z,10.27
2022-12-19T22:08:15.320Z,10.58
2022-12-19T22:10:41.699Z,10.37
2022-12-19T22:13:08.113Z,10.29
2022-12-19T22:15:34.525Z,10.06
2022-12-19T22:18:00.893Z,10.75
2022-12-19T22:20:27.256Z,10.95
2022-12-19T22:22:53.644Z,11.20
2022-12-19T22:25:19.996Z,10.98
2022-12-19T22:27:46.330Z,11.10
2022-12-19T22:30:12.673Z,10.89
2022-12-19T22:32:39.051Z,11.00
2022-12-19T22:35:05.410Z,11.11
2022-12-19T22:37:31.866Z,11.11
2022-12-19T22:39:58.350Z,11.25
2022-12-19T22:42:24.750Z,11.18
2022-12-19T22:44:51.147Z,11.30
2022-12-19T22:47:17.497Z,11.55
2022-12-19T22:49:43.889Z,11.52
2022-12-19T22:52:10.287Z,11.09
2022-12-19T22:54:36.682Z,11.24
2022-12-19T22:57:03.042Z,11.30
2022-12-19T22:59:29.413Z,11.34
2022-12-19T23:01:55.898Z,11.42
2022-12-19T23:04:22.571Z,11.13
2022-12-19T23:06:49.000Z,11.18
2022-12-19T23:09:15.386Z,11.02
2022-12-19T23:11:41.733Z,11.15
2022-12-19T23:14:08.134Z,10.73
2022-12-19T23:16:34.596Z,10.83
2022-12-19T23:19:01.044Z,10.91
2022-12-19T23:21:27.411Z,10.77
2022-12-19T23:23:53.779Z,11.15
2022-12-19T23:26:20.114Z,10.96
2022-12-19T23:28:46.475Z,10.87
2022-12-19T23:31:12.868Z,10.51
2022-12-19T23:33:39.296Z,10.32
2022-12-19T23:36:05.722Z,10.53
2022-12-19T23:38:32.119Z,10.49
2022-12-19T23:40:58.488Z,10.59
2022-12-19T23:43:24.856Z,10.27
2022-12-19T23:45:51.469Z,10.47
2022-12-19T23:48:17.846Z,10.77
2022-12-19T23:50:44.184Z,10.56
2022-12-19T23:53:10.556Z,10.74
2022-12-19T23:55:36.931Z,10.79
2022-12-19T23:58:07.879Z,10.40
